Time;durP1;ratioP1;P1;durP2;ratioP2;P2;SDS_P1;SDS_P2;PMS_P1;PMS_P2;Temp;Humidity;BMP_temperature;BMP_pressure;BME280_temperature;BME280_humidity;BME280_pressure;Samples;Min_cycle;Max_cycle;Signal;HPM_P1;HPM_P2
2022/01/01 00:00:33;;;;;;;144.85;80.43;;;;;;;9.09;65.25;100244.13;4251544;33;31762;-90
2022/01/01 00:03:01;;;;;;;127.00;73.95;;;;;;;9.03;64.59;100238.22;4244709;33;32796;-88
2022/01/01 00:05:29;;;;;;;115.35;70.03;;;;;;;8.64;65.67;100236.72;4260034;33;33916;-84
2022/01/01 00:07:59;;;;;;;120.07;69.35;;;;;;;8.61;65.44;100238.56;4254632;33;36767;-84
2022/01/01 00:10:27;;;;;;;127.07;68.87;;;;;;;8.39;66.02;100233.87;4256638;33;33213;-84
2022/01/01 00:13:13;;;;;;;108.20;64.07;;;;;;;8.31;66.27;100232.31;4253305;33;33525;-84
2022/01/01 00:15:41;;;;;;;121.00;67.40;;;;;;;8.15;66.90;100237.16;4252851;33;34436;-85
2022/01/01 00:18:10;;;;;;;110.65;64.00;;;;;;;8.16;66.50;100229.22;4252816;33;33370;-86
2022/01/01 00:20:38;;;;;;;126.40;65.10;;;;;;;7.92;67.55;100228.09;4257274;33;33265;-87
2022/01/01 00:23:05;;;;;;;111.15;65.05;;;;;;;8.13;66.73;100236.34;4235912;33;33442;-87
2022/01/01 00:25:33;;;;;;;120.95;67.32;;;;;;;8.25;66.08;100222.84;4259210;33;34730;-88
2022/01/01 00:28:00;;;;;;;119.85;64.75;;;;;;;8.27;65.93;100214.94;4249663;33;34225;-88
2022/01/01 00:30:28;;;;;;;111.55;64.12;;;;;;;8.25;65.82;100220.22;4256826;33;33216;-88
2022/01/01 00:32:56;;;;;;;106.93;63.90;;;;;;;8.25;65.78;100207.06;4257583;33;33599;-87
2022/01/01 00:35:24;;;;;;;114.95;64.32;;;;;;;7.88;67.07;100202.81;4236732;33;33612;-87
2022/01/01 00:37:51;;;;;;;111.57;63.67;;;;;;;7.50;68.29;100201.16;4233655;33;32685;-87
2022/01/01 00:40:19;;;;;;;119.03;67.55;;;;;;;8.08;66.43;100217.19;4255867;33;32409;-88
2022/01/01 00:42:52;;;;;;;112.75;63.30;;;;;;;7.93;66.24;100211.44;4248745;33;32759;-88
2022/01/01 00:45:19;;;;;;;106.97;59.10;;;;;;;7.74;66.87;100202.31;4261921;33;34403;-88
2022/01/01 00:47:47;;;;;;;97.75;60.12;;;;;;;7.77;66.75;100209.25;4251310;33;33949;-88
2022/01/01 00:50:15;;;;;;;96.20;58.33;;;;;;;7.71;66.68;100218.16;4256231;33;33585;-88
2022/01/01 00:52:44;;;;;;;100.00;58.22;;;;;;;8.01;65.61;100213.00;4245392;33;34403;-88
2022/01/01 00:55:11;;;;;;;113.68;59.00;;;;;;;7.61;66.61;100208.78;4231341;33;33393;-87
2022/01/01 00:57:39;;;;;;;104.18;59.65;;;;;;;7.58;66.58;100214.09;4256407;33;33371;-87
2022/01/01 01:00:08;;;;;;;105.93;61.45;;;;;;;7.47;67.41;100210.88;4249201;33;32738;-91
2022/01/01 01:03:13;;;;;;;89.68;52.92;;;;;;;7.59;66.81;100211.41;4227419;33;33833;-91
2022/01/01 01:06:01;;;;;;;94.87;55.72;;;;;;;7.80;65.89;100227.56;4245603;33;32817;-89
2022/01/01 01:08:30;;;;;;;107.05;58.33;;;;;;;7.48;66.56;100223.09;4234252;33;33660;-89
2022/01/01 01:10:59;;;;;;;91.30;52.97;;;;;;;7.32;67.69;100234.00;4230199;33;32852;-89
2022/01/01 01:13:31;;;;;;;97.90;56.55;;;;;;;7.75;65.66;100238.19;4230257;33;32917;-89
2022/01/01 01:15:59;;;;;;;94.60;54.55;;;;;;;7.30;66.97;100233.16;4223799;33;33498;-89
2022/01/01 01:18:27;;;;;;;120.18;65.55;;;;;;;7.21;67.27;100230.72;4225785;33;32962;-90
2022/01/01 01:20:54;;;;;;;118.40;64.28;;;;;;;7.18;68.34;100236.06;4228661;33;34136;-90
2022/01/01 01:23:22;;;;;;;102.40;55.10;;;;;;;7.44;67.63;100228.44;4220286;33;33116;-90
2022/01/01 01:25:50;;;;;;;107.28;58.42;;;;;;;7.58;66.41;100225.47;4220364;33;33320;-90
2022/01/01 01:28:18;;;;;;;100.38;55.53;;;;;;;7.34;66.88;100231.31;4228357;33;33495;-90
2022/01/01 01:30:47;;;;;;;88.80;49.60;;;;;;;7.32;67.20;100223.47;4218253;33;32144;-90
2022/01/01 01:33:14;;;;;;;88.62;46.70;;;;;;;7.51;66.72;100218.66;4206890;33;34284;-90
2022/01/01 01:35:42;;;;;;;82.20;46.22;;;;;;;7.52;66.89;100230.03;4234217;33;33597;-89
2022/01/01 01:38:10;;;;;;;83.97;45.72;;;;;;;7.29;67.65;100234.06;4230273;33;32049;-90
2022/01/01 01:40:38;;;;;;;82.30;42.47;;;;;;;6.87;69.47;100246.38;4216447;33;33691;-91
2022/01/01 01:43:10;;;;;;;76.55;39.58;;;;;;;6.96;69.40;100240.94;4228483;33;33102;-90
2022/01/01 01:45:38;;;;;;;75.43;41.80;;;;;;;7.06;69.24;100241.59;4218032;33;33180;-89
2022/01/01 01:48:06;;;;;;;69.87;36.20;;;;;;;7.00;69.11;100234.72;4203645;33;31980;-90
2022/01/01 01:50:37;;;;;;;58.63;33.28;;;;;;;7.29;68.40;100228.78;4215561;33;32912;-90
2022/01/01 01:53:07;;;;;;;52.88;30.33;;;;;;;7.52;67.57;100228.25;4213745;33;32907;-91
2022/01/01 01:55:34;;;;;;;50.22;28.85;;;;;;;7.50;67.61;100232.69;4213595;33;33072;-90
2022/01/01 01:58:03;;;;;;;56.58;32.40;;;;;;;7.33;68.03;100219.94;4225227;33;33342;-90
2022/01/01 02:03:19;;;;;;;51.30;27.90;;;;;;;7.47;67.51;100238.00;4211041;33;32206;-91
2022/01/01 02:05:47;;;;;;;54.53;28.67;;;;;;;7.66;66.96;100227.91;4214043;33;33272;-90
2022/01/01 02:08:16;;;;;;;52.15;29.20;;;;;;;7.69;66.71;100230.44;4225245;33;32166;-90
2022/01/01 02:10:48;;;;;;;49.97;26.83;;;;;;;7.59;66.71;100235.06;4216812;33;32666;-90
2022/01/01 02:13:22;;;;;;;45.38;24.52;;;;;;;7.37;67.52;100226.87;4213986;33;33316;-91
2022/01/01 02:18:20;;;;;;;41.72;23.62;;;;;;;7.24;68.61;100235.06;4222458;33;33558;-90
2022/01/01 02:20:51;;;;;;;35.78;19.55;;;;;;;7.34;68.56;100236.56;4236070;33;33490;-90
2022/01/01 02:23:26;;;;;;;28.80;16.27;;;;;;;7.35;68.26;100233.03;4227130;33;36504;-90
2022/01/01 02:25:57;;;;;;;29.92;16.12;;;;;;;7.41;68.24;100241.66;4223267;33;33409;-91
2022/01/01 02:28:24;;;;;;;36.15;18.50;;;;;;;7.31;68.42;100241.88;4224520;33;32629;-91
2022/01/01 02:30:56;;;;;;;29.17;15.27;;;;;;;6.80;70.06;100245.66;4215732;33;33571;-90
2022/01/01 02:33:24;;;;;;;29.73;16.23;;;;;;;7.15;69.32;100246.63;4235708;33;34869;-90
2022/01/01 02:35:55;;;;;;;23.52;14.63;;;;;;;6.96;70.00;100254.06;4236925;33;33359;-89
2022/01/01 02:38:22;;;;;;;23.67;14.30;;;;;;;7.01;69.99;100252.19;4224535;33;32456;-90
2022/01/01 02:40:50;;;;;;;28.95;13.70;;;;;;;6.75;72.29;100244.88;4226561;33;31867;-87
2022/01/01 02:43:18;;;;;;;21.20;12.18;;;;;;;7.15;70.87;100246.63;4228526;33;33398;-86
2022/01/01 02:45:53;;;;;;;18.90;10.65;;;;;;;6.82;71.90;100242.97;4229178;33;34295;-86
2022/01/01 02:48:21;;;;;;;19.42;11.55;;;;;;;7.01;72.05;100243.44;4229276;33;33040;-86
2022/01/01 02:50:52;;;;;;;18.58;10.68;;;;;;;7.22;70.89;100231.62;4227465;33;34415;-86
2022/01/01 02:53:22;;;;;;;17.45;9.27;;;;;;;7.10;71.84;100227.50;4240914;33;33771;-86
2022/01/01 02:55:50;;;;;;;17.62;9.02;;;;;;;7.31;71.69;100219.13;4219221;33;31158;-87
2022/01/01 02:58:18;;;;;;;11.25;7.28;;;;;;;7.44;71.27;100220.53;4245786;33;32419;-85
2022/01/01 03:00:45;;;;;;;17.58;9.93;;;;;;;7.63;72.49;100217.47;4219782;33;35981;-86
2022/01/01 03:03:16;;;;;;;14.65;8.63;;;;;;;7.78;72.03;100226.72;4230187;33;32577;-88
2022/01/01 03:05:44;;;;;;;16.20;8.57;;;;;;;7.63;72.80;100222.72;4221113;33;34683;-86
2022/01/01 03:08:12;;;;;;;18.60;9.80;;;;;;;7.54;75.31;100228.22;4231123;33;32848;-85
2022/01/01 03:10:40;;;;;;;16.37;7.95;;;;;;;8.21;72.46;100221.19;4231656;33;33338;-91
2022/01/01 03:13:19;;;;;;;12.57;7.00;;;;;;;8.09;73.24;100226.81;4233535;33;31797;-91
2022/01/01 03:15:47;;;;;;;16.50;7.35;;;;;;;8.55;73.07;100221.19;4228394;33;34370;-88
2022/01/01 03:18:16;;;;;;;12.18;5.90;;;;;;;8.89;74.25;100221.03;4219827;33;33891;-89
2022/01/01 03:20:44;;;;;;;8.82;5.82;;;;;;;8.89;75.13;100225.44;4220565;33;33870;-88
2022/01/01 03:23:12;;;;;;;12.68;6.05;;;;;;;9.36;74.90;100231.03;4225470;33;32844;-89
2022/01/01 03:25:39;;;;;;;10.05;5.85;;;;;;;9.46;75.41;100237.72;4232380;33;32997;-89
2022/01/01 03:28:07;;;;;;;9.48;5.87;;;;;;;9.67;75.22;100234.38;4244151;33;32878;-90
2022/01/01 03:30:35;;;;;;;9.77;5.97;;;;;;;10.03;74.30;100235.84;4219152;33;32653;-90
2022/01/01 03:33:02;;;;;;;11.02;6.03;;;;;;;9.94;75.11;100229.94;4231033;33;34021;-90
2022/01/01 03:35:30;;;;;;;10.18;5.95;;;;;;;10.15;74.50;100233.63;4233128;33;34101;-90
2022/01/01 03:37:58;;;;;;;12.98;6.15;;;;;;;10.48;73.72;100242.12;4224135;33;32997;-91
2022/01/01 03:40:26;;;;;;;10.30;5.65;;;;;;;10.57;73.49;100234.81;4244605;33;33638;-89
2022/01/01 03:42:53;;;;;;;12.27;5.80;;;;;;;10.54;73.20;100240.19;4218320;33;34217;-90
2022/01/01 03:45:21;;;;;;;13.05;6.70;;;;;;;10.88;72.31;100243.31;4220680;33;33800;-89
2022/01/01 03:47:49;;;;;;;10.68;6.30;;;;;;;10.97;71.78;100245.62;4234373;33;31494;-90
2022/01/01 03:50:17;;;;;;;12.93;6.20;;;;;;;10.43;72.62;100243.22;4239170;33;33725;-89
2022/01/01 03:52:45;;;;;;;12.65;6.30;;;;;;;10.38;73.24;100246.03;4249915;33;33807;-88
2022/01/01 03:55:14;;;;;;;12.77;5.70;;;;;;;10.36;72.97;100247.88;4239089;33;34156;-89
2022/01/01 03:57:42;;;;;;;10.13;6.28;;;;;;;10.52;72.79;100242.91;4237065;33;32409;-88
2022/01/01 04:00:14;;;;;;;11.38;5.03;;;;;;;10.65;72.59;100252.09;4241837;33;32706;-89
2022/01/01 04:02:41;;;;;;;8.63;5.27;;;;;;;10.98;71.83;100247.34;4228166;33;34657;-89
2022/01/01 04:05:09;;;;;;;13.30;6.07;;;;;;;10.82;71.60;100251.47;4239959;33;33904;-89
2022/01/01 04:07:37;;;;;;;10.15;5.22;;;;;;;11.21;70.57;100253.53;4227980;33;32339;-90
2022/01/01 04:10:05;;;;;;;11.55;4.68;;;;;;;10.89;71.27;100252.97;4221286;33;33245;-90
2022/01/01 04:12:33;;;;;;;11.27;5.55;;;;;;;11.19;70.49;100258.00;4242236;33;33817;-89
2022/01/01 04:15:02;;;;;;;7.45;5.10;;;;;;;10.69;72.29;100263.44;4238296;33;32963;-90
2022/01/01 04:17:35;;;;;;;8.25;4.68;;;;;;;11.34;70.23;100264.47;4241123;33;33715;-89
2022/01/01 04:20:05;;;;;;;11.77;5.22;;;;;;;11.33;69.90;100273.31;4227940;33;32825;-90
2022/01/01 04:22:33;;;;;;;7.75;4.25;;;;;;;11.37;70.00;100272.28;4241945;33;34998;-90
2022/01/01 04:25:01;;;;;;;9.20;4.95;;;;;;;11.65;69.02;100274.69;4240418;33;32538;-90
2022/01/01 04:27:29;;;;;;;9.65;5.20;;;;;;;11.08;70.63;100273.41;4226273;33;33987;-90
2022/01/01 04:29:56;;;;;;;9.15;4.87;;;;;;;11.58;69.25;100286.41;4240696;33;33735;-90
2022/01/01 04:32:24;;;;;;;9.05;5.30;;;;;;;11.62;69.03;100283.59;4241288;33;34329;-90
2022/01/01 04:34:52;;;;;;;6.32;3.55;;;;;;;11.81;68.08;100278.41;4254838;33;33387;-89
2022/01/01 04:37:20;;;;;;;7.25;4.07;;;;;;;11.89;67.80;100276.34;4240288;33;33719;-89
2022/01/01 04:39:52;;;;;;;6.80;4.25;;;;;;;11.74;68.16;100269.88;4251826;33;33463;-89
2022/01/01 04:42:20;;;;;;;8.50;4.45;;;;;;;11.84;68.04;100275.69;4240866;33;32850;-89
2022/01/01 04:44:48;;;;;;;8.57;4.47;;;;;;;11.68;68.12;100270.13;4240638;33;34121;-89
2022/01/01 04:47:16;;;;;;;6.90;4.00;;;;;;;11.61;68.66;100267.78;4241343;33;33282;-89
2022/01/01 04:49:43;;;;;;;6.70;3.92;;;;;;;11.46;69.37;100259.56;4242120;33;33442;-89
2022/01/01 04:52:11;;;;;;;5.50;3.22;;;;;;;11.48;69.31;100278.84;4237646;33;35717;-88
2022/01/01 04:54:41;;;;;;;4.28;2.97;;;;;;;11.75;68.29;100284.81;4229143;33;32831;-88
2022/01/01 04:57:11;;;;;;;5.30;3.10;;;;;;;11.66;68.96;100279.03;4243184;33;32633;-89
2022/01/01 04:59:40;;;;;;;6.57;3.28;;;;;;;11.72;68.47;100277.00;4238610;33;33098;-89
2022/01/01 05:02:08;;;;;;;5.87;2.60;;;;;;;11.88;68.02;100279.94;4241065;33;33304;-89
2022/01/01 05:04:37;;;;;;;5.72;2.95;;;;;;;12.13;67.28;100265.66;4211791;33;34505;-90
2022/01/01 05:07:07;;;;;;;4.57;2.95;;;;;;;12.14;67.24;100259.44;4252230;33;33599;-89
2022/01/01 05:09:34;;;;;;;5.85;3.05;;;;;;;12.01;67.71;100270.56;4241336;33;33667;-89
2022/01/01 05:12:02;;;;;;;4.12;3.12;;;;;;;12.25;66.76;100259.84;4239262;33;34084;-89
2022/01/01 05:14:31;;;;;;;5.55;3.22;;;;;;;12.24;66.87;100258.97;4240868;33;33199;-89
2022/01/01 05:16:58;;;;;;;8.45;2.90;;;;;;;12.17;67.31;100254.03;4240997;33;32472;-89
2022/01/01 05:19:26;;;;;;;5.70;3.05;;;;;;;12.17;67.17;100251.38;4229529;33;33845;-90
2022/01/01 05:21:55;;;;;;;5.00;3.25;;;;;;;12.28;66.76;100257.91;4239534;33;34136;-90
2022/01/01 05:24:23;;;;;;;6.60;3.40;;;;;;;12.33;66.56;100264.81;4239946;33;33702;-89
2022/01/01 05:26:52;;;;;;;3.95;2.80;;;;;;;12.45;66.19;100267.78;4238791;33;34085;-86
2022/01/01 05:29:20;;;;;;;7.25;2.90;;;;;;;12.21;67.12;100258.25;4241260;33;33105;-86
2022/01/01 05:31:47;;;;;;;4.90;2.60;;;;;;;12.41;66.39;100263.53;4239245;33;33939;-86
2022/01/01 05:34:15;;;;;;;5.40;2.67;;;;;;;12.52;65.91;100263.91;4238089;33;33628;-86
2022/01/01 05:36:42;;;;;;;5.07;2.78;;;;;;;12.19;67.14;100257.44;4225031;33;32038;-90
2022/01/01 05:39:11;;;;;;;4.37;2.45;;;;;;;12.33;66.76;100255.06;4239776;33;33937;-90
2022/01/01 05:41:39;;;;;;;6.37;2.22;;;;;;;12.38;66.74;100253.06;4228834;33;33074;-90
2022/01/01 05:44:07;;;;;;;4.47;2.45;;;;;;;12.33;67.07;100263.00;4240369;33;33074;-87
2022/01/01 05:46:35;;;;;;;4.90;2.60;;;;;;;12.46;66.32;100258.91;4239602;33;32110;-88
2022/01/01 05:49:03;;;;;;;6.50;3.15;;;;;;;12.65;65.77;100252.78;4228024;33;31634;-87
2022/01/01 05:51:31;;;;;;;6.90;2.92;;;;;;;12.63;65.80;100257.28;4237384;33;33998;-89
2022/01/01 05:53:58;;;;;;;3.85;2.72;;;;;;;12.77;65.19;100265.47;4229999;33;33776;-91
2022/01/01 05:56:26;;;;;;;4.55;2.50;;;;;;;12.56;65.40;100260.22;4242081;33;33978;-88
2022/01/01 05:58:54;;;;;;;6.30;2.62;;;;;;;12.36;66.58;100273.47;4250364;33;33283;-86
2022/01/01 06:01:22;;;;;;;3.97;2.03;;;;;;;12.17;67.05;100276.06;4241519;33;33900;-86
2022/01/01 06:03:50;;;;;;;4.25;2.03;;;;;;;12.35;66.71;100286.78;4252156;33;33784;-86
2022/01/01 06:06:18;;;;;;;6.18;2.45;;;;;;;12.64;65.51;100286.38;4241279;33;33950;-86
2022/01/01 06:08:59;;;;;;;3.45;2.30;;;;;;;12.87;64.62;100285.34;4251397;33;34027;-87
2022/01/01 06:11:26;;;;;;;5.15;2.62;;;;;;;12.68;65.32;100300.34;4241494;33;33776;-86
2022/01/01 06:13:54;;;;;;;4.00;2.28;;;;;;;12.72;65.23;100301.91;4240685;33;34540;-86
2022/01/01 06:16:22;;;;;;;3.78;2.62;;;;;;;12.45;66.29;100304.87;4238390;33;32434;-87
2022/01/01 06:18:49;;;;;;;3.65;2.55;;;;;;;12.23;67.15;100314.63;4251852;33;33381;-86
2022/01/01 06:21:17;;;;;;;3.47;2.50;;;;;;;12.64;65.67;100309.34;4238713;33;33899;-86
2022/01/01 06:23:45;;;;;;;4.12;2.53;;;;;;;12.63;65.52;100307.63;4230057;33;32888;-87
2022/01/01 06:26:13;;;;;;;3.42;2.03;;;;;;;12.59;65.94;100324.59;4239941;33;33491;-87
2022/01/01 06:28:41;;;;;;;3.50;2.65;;;;;;;12.44;66.11;100334.94;4240418;33;32979;-88
2022/01/01 06:31:09;;;;;;;3.78;2.45;;;;;;;12.44;66.34;100336.72;4240366;33;33946;-88
2022/01/01 06:33:36;;;;;;;6.32;3.47;;;;;;;12.50;66.07;100323.19;4228026;33;33260;-90
2022/01/01 06:36:04;;;;;;;6.07;3.62;;;;;;;12.86;64.85;100333.97;4241188;33;32523;-90
2022/01/01 06:38:32;;;;;;;5.22;3.45;;;;;;;12.92;64.40;100335.50;4240741;33;32943;-89
2022/01/01 06:41:00;;;;;;;4.12;2.62;;;;;;;12.83;64.79;100342.06;4231209;33;33962;-89
2022/01/01 06:43:27;;;;;;;5.00;2.80;;;;;;;13.00;64.08;100339.50;4239142;33;32960;-89
2022/01/01 06:45:55;;;;;;;6.47;3.05;;;;;;;12.95;64.22;100341.50;4250315;33;33346;-90
2022/01/01 06:48:23;;;;;;;4.65;2.30;;;;;;;12.67;65.34;100347.16;4230182;33;33962;-91
2022/01/01 06:50:51;;;;;;;5.00;2.22;;;;;;;12.86;64.61;100352.50;4227972;33;33478;-91
2022/01/01 06:53:19;;;;;;;4.18;2.58;;;;;;;12.90;64.63;100351.44;4239670;33;35222;-90
2022/01/01 06:55:47;;;;;;;4.15;2.15;;;;;;;12.91;64.65;100349.66;4239641;33;33148;-90
2022/01/01 06:58:15;;;;;;;3.90;2.42;;;;;;;12.98;64.34;100357.28;4227150;33;32721;-90
2022/01/01 07:00:43;;;;;;;5.75;2.72;;;;;;;12.88;64.59;100363.91;4232558;33;32589;-91
2022/01/01 07:03:10;;;;;;;3.20;2.00;;;;;;;13.01;64.39;100366.91;4229033;33;33197;-91
2022/01/01 07:05:38;;;;;;;3.40;2.17;;;;;;;12.60;65.98;100372.22;4229764;33;32672;-90
2022/01/01 07:08:08;;;;;;;3.08;1.83;;;;;;;12.70;65.41;100370.03;4238478;33;33572;-91
2022/01/01 07:10:36;;;;;;;4.57;2.40;;;;;;;12.45;66.37;100379.03;4236433;33;32744;-89
2022/01/01 07:13:03;;;;;;;4.87;2.15;;;;;;;12.94;64.83;100387.50;4239735;33;33865;-91
2022/01/01 07:15:32;;;;;;;5.85;2.25;;;;;;;12.82;65.27;100382.75;4251783;33;33762;-91
2022/01/01 07:18:00;;;;;;;3.72;2.33;;;;;;;13.13;63.89;100392.00;4228637;33;32697;-91
2022/01/01 07:20:27;;;;;;;6.68;2.72;;;;;;;13.07;63.92;100390.47;4227847;33;34456;-89
2022/01/01 07:22:55;;;;;;;5.35;2.97;;;;;;;13.13;64.07;100392.00;4251320;33;34196;-90
2022/01/01 07:25:23;;;;;;;6.95;3.10;;;;;;;13.10;64.19;100402.72;4250071;33;34285;-87
2022/01/01 07:27:51;;;;;;;7.93;2.95;;;;;;;13.33;63.24;100410.53;4240942;33;33669;-91
2022/01/01 07:30:18;;;;;;;5.75;3.50;;;;;;;12.91;64.30;100419.44;4238692;33;33435;-89
2022/01/01 07:32:48;;;;;;;4.37;2.60;;;;;;;12.54;65.80;100421.03;4238826;33;34763;-89
2022/01/01 07:35:18;;;;;;;4.82;2.50;;;;;;;12.53;65.98;100421.06;4239628;33;32681;-89
2022/01/01 07:37:45;;;;;;;4.75;2.72;;;;;;;12.72;65.27;100429.09;4251025;33;33649;-88
2022/01/01 07:40:15;;;;;;;5.32;2.70;;;;;;;12.44;65.58;100438.22;4239716;33;32803;-89
2022/01/01 07:42:44;;;;;;;5.75;3.08;;;;;;;12.44;65.58;100437.37;4240759;33;34074;-90
2022/01/01 07:45:13;;;;;;;5.75;2.75;;;;;;;12.86;64.54;100441.75;4240478;33;33552;-89
2022/01/01 07:47:40;;;;;;;4.22;2.67;;;;;;;12.41;65.76;100438.34;4235221;33;33231;-88
2022/01/01 07:50:09;;;;;;;5.43;2.20;;;;;;;12.66;65.17;100447.91;4239040;33;34930;-88
2022/01/01 07:52:38;;;;;;;5.12;2.40;;;;;;;12.84;64.86;100443.63;4225487;33;32682;-87
2022/01/01 07:55:08;;;;;;;4.80;2.40;;;;;;;12.79;64.98;100449.97;4248453;33;34096;-88
2022/01/01 07:57:35;;;;;;;4.85;2.70;;;;;;;12.77;65.19;100449.19;4236792;33;33682;-87
2022/01/01 08:00:06;;;;;;;3.42;2.50;;;;;;;12.57;66.23;100447.34;4226177;33;33983;-87
2022/01/01 08:02:43;;;;;;;3.40;2.20;;;;;;;12.73;65.74;100452.91;4237674;33;33415;-86
2022/01/01 08:05:12;;;;;;;3.42;2.37;;;;;;;12.76;65.71;100454.53;4235609;33;32090;-87
2022/01/01 08:07:40;;;;;;;4.20;2.28;;;;;;;12.83;65.48;100458.66;4223512;33;32986;-87
2022/01/01 08:10:27;;;;;;;3.78;2.35;;;;;;;12.61;66.27;100457.84;4234707;33;35241;-87
2022/01/01 08:12:58;;;;;;;2.90;1.92;;;;;;;12.74;65.92;100465.22;4224275;33;33894;-89
2022/01/01 08:15:26;;;;;;;3.95;2.47;;;;;;;12.74;66.41;100474.97;4250845;33;33251;-89
2022/01/01 08:17:54;;;;;;;4.35;2.72;;;;;;;13.05;65.45;100474.50;4233356;33;33225;-88
2022/01/01 08:20:22;;;;;;;4.37;2.60;;;;;;;13.20;64.78;100483.59;4235761;33;34791;-88
2022/01/01 08:22:52;;;;;;;3.55;2.25;;;;;;;13.72;63.10;100481.28;4225855;33;34121;-87
2022/01/01 08:25:21;;;;;;;5.85;2.65;;;;;;;14.08;61.83;100484.87;4235699;33;32166;-88
2022/01/01 08:27:49;;;;;;;3.83;2.08;;;;;;;13.79;62.67;100480.09;4236879;33;33570;-88
2022/01/01 08:30:16;;;;;;;3.47;2.00;;;;;;;13.78;62.76;100491.63;4226246;33;33690;-89
2022/01/01 08:32:44;;;;;;;4.37;2.17;;;;;;;13.65;62.92;100495.78;4223217;33;33395;-90
2022/01/01 08:35:25;;;;;;;5.90;2.22;;;;;;;13.71;62.82;100500.78;4234159;33;34025;-89
2022/01/01 08:37:52;;;;;;;3.60;2.50;;;;;;;14.02;61.97;100498.47;4233221;33;32827;-87
2022/01/01 08:40:24;;;;;;;4.10;2.60;;;;;;;13.94;62.15;100491.78;4224599;33;33037;-88
2022/01/01 08:42:53;;;;;;;6.68;2.30;;;;;;;14.05;62.28;100490.38;4225398;33;32407;-87
2022/01/01 08:45:21;;;;;;;5.30;2.58;;;;;;;14.15;62.19;100489.91;4236812;33;32829;-87
2022/01/01 08:47:50;;;;;;;3.08;1.77;;;;;;;13.92;62.49;100499.81;4235405;33;33655;-86
2022/01/01 08:50:18;;;;;;;8.05;2.95;;;;;;;14.18;61.95;100495.94;4235199;33;33809;-87
2022/01/01 08:52:45;;;;;;;3.35;2.28;;;;;;;14.26;61.44;100493.78;4223479;33;34191;-87
2022/01/01 08:55:15;;;;;;;2.50;2.00;;;;;;;14.23;62.12;100496.56;4222231;33;32190;-87
2022/01/01 08:57:43;;;;;;;4.37;2.15;;;;;;;14.62;61.09;100503.56;4235772;33;33420;-87
2022/01/01 09:00:11;;;;;;;2.83;1.90;;;;;;;14.98;60.67;100505.34;4223184;33;33150;-86
2022/01/01 09:02:40;;;;;;;4.37;2.60;;;;;;;15.01;60.07;100506.06;4235950;33;34018;-87
2022/01/01 09:05:10;;;;;;;3.55;2.17;;;;;;;15.15;60.74;100512.50;4235731;33;33583;-86
2022/01/01 09:07:37;;;;;;;4.75;2.60;;;;;;;15.31;59.39;100508.94;4236557;33;34341;-87
2022/01/01 09:10:06;;;;;;;4.43;2.53;;;;;;;15.79;57.33;100515.31;4237767;33;33145;-86
2022/01/01 09:12:33;;;;;;;2.90;2.00;;;;;;;15.64;58.22;100513.47;4224073;33;34053;-87
2022/01/01 09:15:01;;;;;;;4.78;2.10;;;;;;;15.78;57.13;100520.72;4232418;33;32125;-89
2022/01/01 09:17:29;;;;;;;4.32;1.92;;;;;;;15.28;58.23;100529.50;4223597;33;33725;-89
2022/01/01 09:19:57;;;;;;;2.80;1.90;;;;;;;15.27;59.02;100530.47;4221999;33;33220;-89
2022/01/01 09:22:26;;;;;;;3.80;2.08;;;;;;;15.73;57.18;100517.44;4233794;33;33822;-89
2022/01/01 09:24:54;;;;;;;3.40;2.42;;;;;;;15.72;57.39;100527.25;4208529;33;33647;-89
2022/01/01 09:27:22;;;;;;;3.15;2.35;;;;;;;15.98;56.69;100522.28;4234519;33;33438;-90
2022/01/01 09:29:49;;;;;;;3.92;1.90;;;;;;;15.78;57.34;100516.25;4211673;33;32642;-89
2022/01/01 09:32:18;;;;;;;3.60;2.12;;;;;;;15.88;57.25;100520.12;4210030;33;33925;-90
2022/01/01 09:34:46;;;;;;;3.65;2.08;;;;;;;16.11;56.41;100518.03;4232605;33;32559;-87
2022/01/01 09:37:14;;;;;;;2.67;2.05;;;;;;;16.31;55.73;100522.25;4230644;33;33247;-87
2022/01/01 09:39:42;;;;;;;4.20;2.50;;;;;;;16.36;55.34;100514.84;4224999;33;33283;-87
2022/01/01 09:42:10;;;;;;;4.22;2.47;;;;;;;16.01;56.71;100523.00;4247775;33;34378;-88
2022/01/01 09:44:39;;;;;;;2.80;2.15;;;;;;;15.77;58.19;100513.69;4233414;33;32441;-89
2022/01/01 09:47:08;;;;;;;4.93;2.10;;;;;;;16.04;56.79;100522.81;4230883;33;34240;-87
2022/01/01 09:49:36;;;;;;;5.55;2.20;;;;;;;16.35;56.06;100523.78;4219573;33;35505;-86
2022/01/01 09:52:04;;;;;;;3.50;1.90;;;;;;;16.13;56.50;100516.97;4224270;33;34649;-86
2022/01/01 09:54:33;;;;;;;2.92;1.83;;;;;;;16.04;56.94;100517.47;4235984;33;34046;-92
2022/01/01 09:57:02;;;;;;;2.75;2.08;;;;;;;15.98;56.96;100524.97;4238137;33;32424;-88
2022/01/01 09:59:31;;;;;;;3.42;2.15;;;;;;;15.69;58.73;100518.53;4245496;33;33852;-90
2022/01/01 10:01:59;;;;;;;3.05;1.62;;;;;;;15.84;57.41;100520.38;4221239;33;32728;-89
2022/01/01 10:04:39;;;;;;;3.28;2.08;;;;;;;15.93;57.87;100517.22;4226848;33;185509;-89
2022/01/01 10:07:07;;;;;;;3.75;1.92;;;;;;;16.01;56.82;100517.66;4223953;33;32540;-88
2022/01/01 10:09:37;;;;;;;3.50;1.62;;;;;;;15.78;57.20;100536.69;4236955;33;34613;-88
2022/01/01 10:12:06;;;;;;;3.62;1.58;;;;;;;15.97;57.28;100532.09;4248306;33;35375;-87
2022/01/01 10:14:39;;;;;;;3.67;1.87;;;;;;;16.26;55.99;100532.28;4234640;33;33401;-87
2022/01/01 10:17:12;;;;;;;2.30;1.67;;;;;;;15.87;57.55;100526.41;4236309;33;34426;-87
2022/01/01 10:19:40;;;;;;;4.07;1.62;;;;;;;15.60;58.66;100534.03;4245177;33;32886;-87
2022/01/01 10:22:12;;;;;;;2.55;1.85;;;;;;;15.78;58.01;100532.22;4234549;33;33664;-87
2022/01/01 10:27:43;;;;;;;1.75;1.58;;;;;;;16.04;56.47;100530.81;4235597;33;32951;-87
2022/01/01 10:30:17;;;;;;;;;;;;;;;15.66;58.21;100521.34;4235532;33;33287;-87
2022/01/01 10:33:07;;;;;;;4.03;1.90;;;;;;;16.06;56.73;100518.28;4245392;33;34562;-87
2022/01/01 10:35:46;;;;;;;1.80;1.48;;;;;;;15.86;57.22;100529.16;4245697;33;33930;-87
2022/01/01 10:38:14;;;;;;;2.92;1.30;;;;;;;15.69;58.09;100531.84;4235212;33;33543;-87
2022/01/01 10:40:43;;;;;;;1.75;1.40;;;;;;;15.61;57.85;100530.41;4230480;33;33542;-87
2022/01/01 10:43:11;;;;;;;2.40;1.40;;;;;;;16.04;56.75;100533.47;4230671;33;32395;-85
2022/01/01 10:45:41;;;;;;;2.62;1.62;;;;;;;16.17;56.22;100538.13;4245434;33;33152;-87
2022/01/01 10:51:00;;;;;;;2.08;1.60;;;;;;;16.40;55.72;100529.72;4247198;33;33883;-87
2022/01/01 10:53:28;;;;;;;3.67;1.45;;;;;;;16.64;54.88;100535.47;4219023;33;33276;-87
2022/01/01 10:55:59;;;;;;;2.33;1.65;;;;;;;16.69;54.62;100540.53;4228280;33;32659;-87
2022/01/01 10:58:28;;;;;;;2.12;1.20;;;;;;;16.63;54.52;100539.94;4232223;33;32635;-89
2022/01/01 11:01:20;;;;;;;2.05;1.00;;;;;;;16.47;55.53;100548.87;4218546;33;32924;-87
2022/01/01 11:03:47;;;;;;;2.58;1.35;;;;;;;16.35;55.31;100531.78;4233516;33;33590;-89
2022/01/01 11:06:18;;;;;;;1.73;1.40;;;;;;;16.57;54.51;100534.97;4214505;33;33957;-88
2022/01/01 11:11:43;;;;;;;2.47;1.35;;;;;;;16.56;54.62;100543.88;4236507;33;33108;-88
2022/01/01 11:14:12;;;;;;;1.95;1.20;;;;;;;16.44;54.89;100541.06;4237922;33;31988;-88
2022/01/01 11:16:42;;;;;;;1.65;1.20;;;;;;;16.44;55.34;100541.94;4239423;33;32541;-88
2022/01/01 11:19:10;;;;;;;1.85;1.20;;;;;;;16.41;54.74;100546.56;4247248;33;34789;-89
2022/01/01 11:21:38;;;;;;;2.22;1.33;;;;;;;16.45;55.13;100545.47;4240097;33;33334;-88
2022/01/01 11:24:07;;;;;;;5.43;2.12;;;;;;;16.28;55.56;100538.37;4237971;33;33800;-88
2022/01/01 11:26:35;;;;;;;3.15;1.60;;;;;;;16.03;55.95;100542.41;4250042;33;33850;-87
2022/01/01 11:29:03;;;;;;;4.18;2.65;;;;;;;16.28;55.21;100543.72;4237027;33;34285;-88
2022/01/01 11:31:31;;;;;;;3.10;1.75;;;;;;;16.16;56.18;100547.94;4240827;33;34317;-87
2022/01/01 11:34:00;;;;;;;7.53;2.40;;;;;;;15.97;57.31;100542.75;4241078;33;33659;-88
2022/01/01 11:36:29;;;;;;;2.50;2.08;;;;;;;16.40;55.78;100535.06;4227276;33;32941;-88
2022/01/01 11:38:59;;;;;;;2.60;1.65;;;;;;;15.64;58.50;100539.22;4237241;33;34283;-88
2022/01/01 11:41:38;;;;;;;3.30;2.00;;;;;;;16.03;56.58;100537.06;4233388;33;34088;-88
2022/01/01 11:44:25;;;;;;;3.47;2.45;;;;;;;16.00;57.01;100534.59;4227425;33;33453;-88